Time;durP1;ratioP1;P1;durP2;ratioP2;P2;SDS_P1;SDS_P2;PMS_P1;PMS_P2;Temp;Humidity;BMP_temperature;BMP_pressure;BME280_temperature;BME280_humidity;BME280_pressure;Samples;Min_cycle;Max_cycle;Signal;HPM_P1;HPM_P2
2021/05/04 00:00:34;;;;;;;3.00;1.80;;;5.40;99.90;;;;;;4929753;28;20928;-78
2021/05/04 00:02:59;;;;;;;2.05;1.95;;;5.50;99.90;;;;;;4936026;28;20434;-78
2021/05/04 00:05:25;;;;;;;1.80;1.70;;;5.50;99.90;;;;;;4934455;28;20400;-78
2021/05/04 00:07:51;;;;;;;1.92;1.83;;;5.40;99.90;;;;;;4928126;28;20473;-77
2021/05/04 00:10:16;;;;;;;1.98;1.77;;;5.40;99.90;;;;;;4929858;28;21025;-79
2021/05/04 00:12:42;;;;;;;2.17;2.00;;;5.50;99.90;;;;;;4914008;29;20406;-78
2021/05/04 00:15:08;;;;;;;2.83;2.08;;;5.50;99.90;;;;;;4899173;29;20409;-78
2021/05/04 00:17:34;;;;;;;2.30;2.15;;;5.40;99.90;;;;;;4919785;28;20447;-77
2021/05/04 00:20:00;;;;;;;2.35;2.15;;;5.30;99.90;;;;;;4925469;29;20425;-78
2021/05/04 00:22:25;;;;;;;2.22;2.03;;;5.30;99.90;;;;;;4928782;29;20448;-78
2021/05/04 00:24:51;;;;;;;2.50;2.30;;;5.30;99.90;;;;;;4945715;29;20398;-77
2021/05/04 00:27:17;;;;;;;2.20;2.10;;;5.30;99.90;;;;;;4895218;28;20936;-78
2021/05/04 00:29:43;;;;;;;2.10;2.00;;;5.40;99.90;;;;;;4898502;29;20792;-79
2021/05/04 00:32:08;;;;;;;2.28;2.08;;;5.30;99.90;;;;;;4912701;29;20398;-78
2021/05/04 00:34:34;;;;;;;2.40;2.20;;;5.40;99.90;;;;;;4921099;29;20802;-78
2021/05/04 00:37:00;;;;;;;2.20;2.00;;;5.40;99.90;;;;;;4900967;29;20413;-78
2021/05/04 00:39:30;;;;;;;2.20;2.00;;;5.40;99.90;;;;;;4919765;28;20807;-78
2021/05/04 00:41:55;;;;;;;2.07;1.73;;;5.40;99.90;;;;;;4913036;28;20412;-77
2021/05/04 00:44:21;;;;;;;2.07;1.97;;;5.40;99.90;;;;;;4892126;29;20779;-78
2021/05/04 00:46:47;;;;;;;1.98;1.88;;;5.50;99.90;;;;;;4931628;28;20392;-77
2021/05/04 00:49:12;;;;;;;2.00;1.90;;;5.50;99.90;;;;;;4915588;28;20419;-77
2021/05/04 00:51:38;;;;;;;1.80;1.70;;;5.50;99.90;;;;;;4931481;29;20428;-77
2021/05/04 00:54:05;;;;;;;2.67;2.20;;;5.50;99.90;;;;;;4935196;28;20396;-77
2021/05/04 00:56:30;;;;;;;2.20;2.00;;;5.50;99.90;;;;;;4913275;29;20495;-78
2021/05/04 00:58:56;;;;;;;3.85;2.20;;;5.50;99.90;;;;;;4917953;29;20413;-78
2021/05/04 01:01:22;;;;;;;2.03;1.92;;;5.50;99.90;;;;;;4951975;28;20392;-77
2021/05/04 01:03:47;;;;;;;1.90;1.80;;;5.50;99.90;;;;;;4928536;28;21184;-77
2021/05/04 01:06:13;;;;;;;2.30;2.10;;;5.50;99.90;;;;;;4918127;29;20441;-76
2021/05/04 01:08:39;;;;;;;2.00;1.90;;;5.50;99.90;;;;;;4919588;28;21895;-77
2021/05/04 01:11:04;;;;;;;1.77;1.67;;;5.50;99.90;;;;;;4931928;29;20436;-78
2021/05/04 01:13:30;;;;;;;2.60;2.03;;;5.50;99.90;;;;;;4913356;29;20406;-78
2021/05/04 01:15:56;;;;;;;2.00;1.90;;;5.60;99.90;;;;;;4923413;28;20485;-77
2021/05/04 01:18:21;;;;;;;1.80;1.70;;;5.60;99.90;;;;;;4930443;29;20456;-77
2021/05/04 01:20:49;;;;;;;2.30;2.10;;;5.60;99.90;;;;;;4910206;28;20545;-78
2021/05/04 01:23:15;;;;;;;2.47;2.15;;;5.60;99.90;;;;;;4913175;29;20429;-78
2021/05/04 01:25:40;;;;;;;2.15;2.00;;;5.60;99.90;;;;;;4914458;29;20432;-78
2021/05/04 01:28:06;;;;;;;2.30;2.10;;;5.60;99.90;;;;;;4948902;28;20906;-77
2021/05/04 01:30:32;;;;;;;2.10;2.00;;;5.60;99.90;;;;;;4887303;29;20406;-78
2021/05/04 01:32:59;;;;;;;2.10;1.90;;;5.50;99.90;;;;;;4911784;29;20405;-77
2021/05/04 01:35:25;;;;;;;2.20;2.00;;;5.60;99.90;;;;;;4933038;29;20422;-78
2021/05/04 01:37:52;;;;;;;2.58;2.10;;;5.60;99.90;;;;;;4942659;28;22042;-77
2021/05/04 01:40:18;;;;;;;1.90;1.80;;;5.70;99.90;;;;;;4930282;28;20805;-78
2021/05/04 01:42:45;;;;;;;2.22;2.00;;;5.70;99.90;;;;;;4924824;28;20793;-77
2021/05/04 01:45:12;;;;;;;1.80;1.70;;;5.70;99.90;;;;;;4919072;29;20398;-78
2021/05/04 01:47:37;;;;;;;2.10;2.00;;;5.70;99.90;;;;;;4940739;28;20904;-77
2021/05/04 01:50:03;;;;;;;2.10;1.93;;;5.70;99.90;;;;;;4953118;28;20442;-77
2021/05/04 01:52:29;;;;;;;2.00;1.90;;;5.70;99.90;;;;;;4948865;28;20409;-78
2021/05/04 01:54:55;;;;;;;2.83;2.05;;;5.70;99.90;;;;;;4950790;28;20470;-80
2021/05/04 01:57:21;;;;;;;2.30;2.10;;;5.70;99.90;;;;;;4932220;29;20479;-79
2021/05/04 01:59:46;;;;;;;2.00;1.80;;;5.60;99.90;;;;;;4930225;28;20401;-78
2021/05/04 02:02:12;;;;;;;2.13;1.93;;;5.70;99.90;;;;;;4921329;29;20402;-77
2021/05/04 02:04:38;;;;;;;2.42;1.98;;;5.70;99.90;;;;;;4913259;29;20882;-77
2021/05/04 02:07:04;;;;;;;2.20;2.00;;;5.70;99.90;;;;;;4907481;29;20410;-77
2021/05/04 02:09:30;;;;;;;2.00;1.90;;;5.70;99.90;;;;;;4916835;29;20809;-78
2021/05/04 02:11:56;;;;;;;2.33;2.13;;;5.80;99.90;;;;;;4917703;28;20402;-78
2021/05/04 02:14:22;;;;;;;2.00;1.90;;;5.70;99.90;;;;;;4897993;29;20460;-79
2021/05/04 02:16:48;;;;;;;2.13;1.93;;;5.70;99.90;;;;;;4913661;29;20483;-78
2021/05/04 02:19:13;;;;;;;2.30;2.10;;;5.70;99.90;;;;;;4903112;28;20829;-78
2021/05/04 02:21:39;;;;;;;3.60;2.13;;;5.70;99.90;;;;;;4938747;28;20399;-78
2021/05/04 02:24:05;;;;;;;2.80;2.40;;;5.60;99.90;;;;;;4917118;29;20402;-79
2021/05/04 02:26:31;;;;;;;2.20;2.00;;;5.70;99.90;;;;;;4905363;29;20477;-77
2021/05/04 02:28:57;;;;;;;2.30;2.10;;;5.60;99.90;;;;;;4937237;28;20412;-78
2021/05/04 02:31:22;;;;;;;2.45;2.25;;;5.60;99.90;;;;;;4915787;29;20402;-78
2021/05/04 02:33:48;;;;;;;2.30;2.10;;;5.60;99.90;;;;;;4926710;28;20408;-77
2021/05/04 02:36:14;;;;;;;2.23;2.03;;;5.70;99.90;;;;;;4941885;28;20483;-77
2021/05/04 02:38:39;;;;;;;2.90;2.40;;;5.60;99.90;;;;;;4951120;28;20413;-77
2021/05/04 02:41:06;;;;;;;2.78;2.30;;;5.60;99.90;;;;;;4915554;29;20456;-77
2021/05/04 02:43:32;;;;;;;2.05;1.95;;;5.60;99.90;;;;;;4931410;28;20396;-77
2021/05/04 02:45:58;;;;;;;2.65;2.20;;;5.50;99.90;;;;;;4926695;29;20398;-77
2021/05/04 02:48:23;;;;;;;3.75;2.38;;;5.60;99.90;;;;;;4923107;28;20771;-77
2021/05/04 02:50:49;;;;;;;2.37;2.20;;;5.60;99.90;;;;;;4933096;28;20421;-76
2021/05/04 02:53:15;;;;;;;2.20;2.10;;;5.50;99.90;;;;;;4916391;29;20420;-76
2021/05/04 02:55:41;;;;;;;3.00;2.10;;;5.50;99.90;;;;;;4933464;28;20405;-77
2021/05/04 02:58:07;;;;;;;3.00;2.30;;;5.60;99.90;;;;;;4917556;28;20411;-76
2021/05/04 03:00:32;;;;;;;2.53;2.27;;;5.50;99.90;;;;;;4915428;28;20489;-78
2021/05/04 03:02:58;;;;;;;2.65;2.45;;;5.50;99.90;;;;;;4918180;28;20790;-76
2021/05/04 03:05:24;;;;;;;2.80;2.13;;;5.50;99.90;;;;;;4916355;28;20433;-77
2021/05/04 03:07:49;;;;;;;2.40;2.10;;;5.40;99.90;;;;;;4923022;28;20402;-78
2021/05/04 03:10:15;;;;;;;3.08;2.33;;;5.60;99.90;;;;;;4914747;29;20475;-77
2021/05/04 03:12:41;;;;;;;2.03;1.90;;;5.60;99.90;;;;;;4915069;29;20428;-77
2021/05/04 03:15:07;;;;;;;2.50;2.30;;;5.60;99.90;;;;;;4915216;29;20398;-78
2021/05/04 03:17:32;;;;;;;2.90;2.50;;;5.70;99.90;;;;;;4917616;29;20496;-78
2021/05/04 03:19:58;;;;;;;2.22;2.03;;;5.70;99.90;;;;;;4917851;28;20848;-78
2021/05/04 03:22:24;;;;;;;2.50;2.30;;;5.60;99.90;;;;;;4910816;29;20422;-77
2021/05/04 03:24:49;;;;;;;2.33;2.10;;;5.70;99.90;;;;;;4918246;28;20404;-77
2021/05/04 03:27:16;;;;;;;2.60;2.40;;;5.70;99.90;;;;;;4941618;28;20429;-77
2021/05/04 03:29:41;;;;;;;2.75;2.35;;;5.70;99.90;;;;;;4946654;29;20416;-78
2021/05/04 03:32:07;;;;;;;2.38;2.17;;;5.70;99.90;;;;;;4913314;28;20421;-78
2021/05/04 03:34:33;;;;;;;2.50;2.30;;;5.70;99.90;;;;;;4938651;29;20797;-78
2021/05/04 03:36:58;;;;;;;2.20;2.10;;;5.70;99.90;;;;;;4919657;29;20406;-78
2021/05/04 03:39:24;;;;;;;3.43;2.63;;;5.80;99.90;;;;;;4925946;29;20405;-77
2021/05/04 03:41:50;;;;;;;2.20;2.10;;;5.70;99.90;;;;;;4932562;28;20461;-78
2021/05/04 03:44:15;;;;;;;2.70;2.50;;;5.70;99.90;;;;;;4906417;29;20481;-79
2021/05/04 03:46:43;;;;;;;3.40;2.43;;;5.70;99.90;;;;;;4931130;28;20514;-79
2021/05/04 03:49:08;;;;;;;2.40;2.20;;;5.70;99.90;;;;;;4914811;29;20417;-77
2021/05/04 03:51:34;;;;;;;6.15;4.32;;;5.80;99.90;;;;;;4923893;28;20420;-77
2021/05/04 03:54:00;;;;;;;4.10;2.72;;;5.80;99.90;;;;;;4949100;28;20468;-78
2021/05/04 03:56:25;;;;;;;3.30;2.40;;;5.80;99.90;;;;;;4922421;28;20404;-78
2021/05/04 03:58:51;;;;;;;2.60;2.40;;;5.80;99.90;;;;;;4910662;28;20432;-78
2021/05/04 04:01:17;;;;;;;2.70;2.47;;;5.80;99.90;;;;;;4923010;29;20521;-76
2021/05/04 04:03:42;;;;;;;2.80;2.50;;;5.80;99.90;;;;;;4939224;28;20404;-78
2021/05/04 04:06:08;;;;;;;3.33;2.30;;;5.80;99.90;;;;;;4912094;29;20400;-78
2021/05/04 04:08:34;;;;;;;2.43;2.23;;;5.90;99.90;;;;;;4924137;28;20398;-78
2021/05/04 04:10:59;;;;;;;2.92;2.63;;;5.90;99.90;;;;;;4939316;29;20418;-77
2021/05/04 04:13:25;;;;;;;3.60;3.30;;;6.00;99.90;;;;;;4909567;29;20402;-78
2021/05/04 04:15:51;;;;;;;3.03;2.73;;;6.00;99.90;;;;;;4922753;29;20432;-77
2021/05/04 04:18:17;;;;;;;3.00;2.55;;;6.20;99.90;;;;;;4927210;29;20405;-79
2021/05/04 04:20:42;;;;;;;2.60;2.40;;;6.10;99.90;;;;;;4918537;28;20401;-78
2021/05/04 04:23:08;;;;;;;2.80;2.60;;;6.10;99.90;;;;;;4915334;29;20410;-77
2021/05/04 04:25:34;;;;;;;5.18;2.80;;;6.20;99.90;;;;;;4912847;28;20421;-79
2021/05/04 04:27:59;;;;;;;2.70;2.50;;;6.20;99.90;;;;;;4931991;28;20764;-77
2021/05/04 04:30:26;;;;;;;2.90;2.70;;;6.20;99.90;;;;;;4933271;29;20407;-79
2021/05/04 04:32:52;;;;;;;2.63;2.40;;;6.20;99.90;;;;;;4931285;29;20468;-78
2021/05/04 04:35:17;;;;;;;3.80;3.00;;;6.40;99.90;;;;;;4920279;29;20899;-78
2021/05/04 04:37:43;;;;;;;5.40;2.58;;;6.30;99.90;;;;;;4915677;28;20410;-79
2021/05/04 04:40:09;;;;;;;2.58;2.38;;;6.60;99.90;;;;;;4924692;28;20473;-78
2021/05/04 04:42:35;;;;;;;2.67;2.47;;;6.50;99.90;;;;;;4933153;28;20492;-79
2021/05/04 04:45:01;;;;;;;3.65;2.97;;;6.60;99.90;;;;;;4902821;29;21067;-78
2021/05/04 04:47:27;;;;;;;4.83;3.80;;;6.60;99.90;;;;;;4893310;28;20405;-77
2021/05/04 04:49:52;;;;;;;3.67;2.60;;;6.80;99.90;;;;;;4904871;29;20505;-77
2021/05/04 04:52:18;;;;;;;4.28;2.80;;;6.80;99.90;;;;;;4906248;28;20392;-76
2021/05/04 04:54:44;;;;;;;3.20;2.70;;;6.90;99.90;;;;;;4905707;29;20413;-76
2021/05/04 04:57:10;;;;;;;3.40;3.10;;;6.90;99.90;;;;;;4920638;29;21023;-77
2021/05/04 04:59:35;;;;;;;2.83;2.60;;;6.90;99.90;;;;;;4949062;28;20390;-79
2021/05/04 05:02:01;;;;;;;2.90;2.63;;;7.00;99.90;;;;;;4900009;28;20449;-78
2021/05/04 05:04:27;;;;;;;3.13;2.83;;;7.10;99.90;;;;;;4931089;28;20412;-79
2021/05/04 05:06:53;;;;;;;4.47;2.78;;;7.20;99.90;;;;;;4924885;29;20430;-78
2021/05/04 05:09:18;;;;;;;3.20;2.90;;;7.10;99.90;;;;;;4913515;28;20402;-78
2021/05/04 05:11:44;;;;;;;3.50;2.70;;;7.20;99.90;;;;;;4933563;29;20405;-79
2021/05/04 05:14:10;;;;;;;5.28;3.00;;;7.30;99.90;;;;;;4918362;29;20411;-79
2021/05/04 05:16:36;;;;;;;4.50;3.60;;;7.30;99.90;;;;;;4923862;29;20398;-79
2021/05/04 05:19:03;;;;;;;4.03;3.37;;;7.40;99.90;;;;;;4945322;29;20394;-79
2021/05/04 05:21:29;;;;;;;3.33;3.03;;;7.50;99.90;;;;;;4934115;29;20446;-78
2021/05/04 05:23:55;;;;;;;3.00;2.80;;;7.60;99.90;;;;;;4954094;28;20404;-79
2021/05/04 05:26:21;;;;;;;3.60;3.00;;;7.60;99.90;;;;;;4916588;28;20404;-79
2021/05/04 05:28:46;;;;;;;2.90;2.70;;;7.70;99.90;;;;;;4945841;28;20414;-79
2021/05/04 05:31:12;;;;;;;4.93;3.43;;;7.80;99.90;;;;;;4914652;29;21342;-78
2021/05/04 05:33:38;;;;;;;3.25;2.90;;;7.80;99.90;;;;;;4932823;28;20538;-79
2021/05/04 05:36:04;;;;;;;3.65;2.80;;;7.90;99.90;;;;;;4923970;28;20405;-79
2021/05/04 05:38:29;;;;;;;3.45;2.90;;;8.10;99.90;;;;;;4895735;29;20406;-79
2021/05/04 05:40:55;;;;;;;3.37;3.07;;;8.20;99.90;;;;;;4944281;29;20829;-80
2021/05/04 05:43:22;;;;;;;3.60;2.92;;;8.30;99.90;;;;;;4930093;28;20495;-79
2021/05/04 05:45:47;;;;;;;3.10;2.80;;;8.40;99.90;;;;;;4931422;29;20402;-80
2021/05/04 05:48:13;;;;;;;3.58;3.22;;;8.50;99.90;;;;;;4929595;29;20413;-79
2021/05/04 05:50:39;;;;;;;3.38;3.05;;;8.60;99.90;;;;;;4913615;28;20402;-79
2021/05/04 05:53:04;;;;;;;3.30;2.93;;;8.60;99.90;;;;;;4904138;28;20982;-80
2021/05/04 05:55:31;;;;;;;3.20;2.83;;;8.80;99.90;;;;;;4917917;29;20460;-79
2021/05/04 05:57:57;;;;;;;4.23;3.10;;;8.90;99.90;;;;;;4929378;28;20428;-78
2021/05/04 06:00:23;;;;;;;4.30;3.00;;;9.00;99.90;;;;;;4935293;28;20439;-79
2021/05/04 06:02:50;;;;;;;4.03;3.63;;;9.10;99.90;;;;;;4931475;28;20387;-79
2021/05/04 06:05:15;;;;;;;3.60;3.30;;;9.20;99.90;;;;;;4910856;29;20461;-78
2021/05/04 06:07:41;;;;;;;3.47;3.17;;;9.20;99.90;;;;;;4936504;28;20404;-77
2021/05/04 06:10:07;;;;;;;3.65;3.05;;;9.40;99.90;;;;;;4916489;29;20935;-78
2021/05/04 06:12:33;;;;;;;3.83;3.28;;;9.50;99.90;;;;;;4908426;29;26415;-79
2021/05/04 06:14:58;;;;;;;3.23;2.93;;;9.70;99.90;;;;;;4938823;28;20401;-78
2021/05/04 06:17:24;;;;;;;3.60;3.30;;;9.80;99.90;;;;;;4899668;29;20401;-78
2021/05/04 06:19:50;;;;;;;3.72;3.17;;;10.00;99.90;;;;;;4900836;29;20433;-79
2021/05/04 06:22:16;;;;;;;3.33;3.03;;;10.10;99.90;;;;;;4899793;29;20406;-79
2021/05/04 06:24:41;;;;;;;3.42;3.13;;;10.20;99.90;;;;;;4930734;29;20394;-78
2021/05/04 06:27:07;;;;;;;2.93;2.73;;;10.30;99.90;;;;;;4932787;28;20419;-80
2021/05/04 06:29:33;;;;;;;3.28;2.97;;;10.30;99.90;;;;;;4930482;28;20431;-78
2021/05/04 06:32:06;;;;;;;3.13;2.83;;;10.40;99.90;;;;;;4891628;28;20419;-78
2021/05/04 06:34:32;;;;;;;3.45;2.95;;;10.50;99.90;;;;;;4866234;29;20409;-79
2021/05/04 06:36:58;;;;;;;3.67;3.28;;;10.50;99.90;;;;;;4866224;28;20393;-79
2021/05/04 06:39:23;;;;;;;3.77;3.00;;;10.60;99.90;;;;;;4939333;29;20405;-80
2021/05/04 06:41:49;;;;;;;3.30;3.00;;;10.60;99.90;;;;;;4919204;28;20965;-78
2021/05/04 06:44:15;;;;;;;2.60;2.40;;;10.80;99.90;;;;;;4935705;28;20396;-79
2021/05/04 06:46:41;;;;;;;3.77;3.47;;;10.80;99.90;;;;;;4937385;29;20398;-79
2021/05/04 06:49:07;;;;;;;2.85;2.65;;;10.90;99.90;;;;;;4932962;28;20396;-80
2021/05/04 06:51:32;;;;;;;3.22;2.83;;;11.00;99.90;;;;;;4900296;29;20390;-79
2021/05/04 06:53:58;;;;;;;3.10;2.60;;;11.10;99.90;;;;;;4925436;28;20402;-80
2021/05/04 06:56:25;;;;;;;4.07;3.13;;;11.20;99.90;;;;;;4914655;28;20413;-80
2021/05/04 06:58:50;;;;;;;3.35;2.92;;;11.40;99.90;;;;;;4912339;28;20398;-79
2021/05/04 07:01:16;;;;;;;3.00;2.78;;;11.60;99.90;;;;;;4921283;29;20773;-79
2021/05/04 07:03:42;;;;;;;3.23;2.80;;;11.70;99.90;;;;;;4931947;28;20392;-79
2021/05/04 07:06:08;;;;;;;3.20;2.90;;;11.80;99.90;;;;;;4916090;29;20825;-80
2021/05/04 07:08:33;;;;;;;3.65;2.55;;;11.90;99.90;;;;;;4905731;28;20433;-79
2021/05/04 07:10:59;;;;;;;2.87;2.60;;;12.10;99.90;;;;;;4926972;28;20414;-79
2021/05/04 07:13:25;;;;;;;3.08;2.53;;;12.20;99.90;;;;;;4923499;29;20402;-80
2021/05/04 07:15:50;;;;;;;3.00;2.70;;;12.30;99.90;;;;;;4900978;28;20430;-80
2021/05/04 07:18:17;;;;;;;2.60;2.40;;;12.30;99.90;;;;;;4891060;29;20473;-79
2021/05/04 07:20:43;;;;;;;2.60;2.40;;;12.30;99.90;;;;;;4927190;28;20402;-79
2021/05/04 07:23:11;;;;;;;2.50;2.30;;;12.30;99.90;;;;;;4905842;28;20400;-79
2021/05/04 07:25:37;;;;;;;3.30;2.63;;;12.40;99.90;;;;;;4912734;28;20402;-80
2021/05/04 07:28:03;;;;;;;4.00;2.67;;;12.40;99.90;;;;;;4938177;28;20413;-78
2021/05/04 07:30:33;;;;;;;6.00;2.80;;;12.50;99.90;;;;;;4930329;29;20418;-78
2021/05/04 07:32:59;;;;;;;4.20;2.80;;;12.60;99.90;;;;;;4926976;28;20485;-78
2021/05/04 07:35:25;;;;;;;2.58;2.38;;;12.80;99.90;;;;;;4934461;28;20384;-79
2021/05/04 07:37:51;;;;;;;2.57;2.37;;;13.00;99.90;;;;;;4915207;29;20406;-79
2021/05/04 07:40:16;;;;;;;2.50;2.30;;;13.10;99.90;;;;;;4928400;28;20499;-79
2021/05/04 07:42:42;;;;;;;3.53;2.33;;;13.20;99.90;;;;;;4929076;28;20416;-79
2021/05/04 07:45:09;;;;;;;4.40;2.40;;;13.30;99.90;;;;;;4931584;28;20479;-79
2021/05/04 07:47:34;;;;;;;2.87;2.57;;;13.20;99.90;;;;;;4913882;29;20406;-79
2021/05/04 07:50:00;;;;;;;3.30;2.70;;;13.20;99.90;;;;;;4928593;29;20902;-80
2021/05/04 07:52:26;;;;;;;2.90;2.40;;;13.20;99.90;;;;;;4901722;29;20430;-79
2021/05/04 07:54:52;;;;;;;2.80;2.50;;;13.20;99.90;;;;;;4912112;28;20408;-79
2021/05/04 07:57:21;;;;;;;3.63;3.00;;;13.30;99.90;;;;;;4908497;29;20514;-79
2021/05/04 07:59:47;;;;;;;3.22;2.53;;;13.50;99.90;;;;;;4919260;29;20412;-78
2021/05/04 08:02:13;;;;;;;2.80;2.50;;;13.60;99.90;;;;;;4917964;29;20390;-83
2021/05/04 08:04:38;;;;;;;2.57;2.30;;;13.90;99.90;;;;;;4929356;29;20410;-79
2021/05/04 08:07:08;;;;;;;3.20;2.58;;;13.90;99.90;;;;;;4887327;29;20398;-79
2021/05/04 08:09:34;;;;;;;2.80;2.05;;;13.90;99.90;;;;;;4922668;28;20427;-79
2021/05/04 08:12:00;;;;;;;2.47;2.20;;;13.90;99.90;;;;;;4920578;29;20404;-79
2021/05/04 08:14:26;;;;;;;2.43;2.23;;;14.00;99.90;;;;;;4890803;29;20819;-81
2021/05/04 08:16:53;;;;;;;2.53;2.05;;;14.10;99.90;;;;;;4928368;28;20774;-79
2021/05/04 08:19:19;;;;;;;2.38;2.17;;;14.10;99.90;;;;;;4928205;29;20796;-81
2021/05/04 08:21:45;;;;;;;2.47;2.10;;;14.30;99.90;;;;;;4917101;28;20406;-79
2021/05/04 08:24:11;;;;;;;2.53;2.33;;;14.50;99.90;;;;;;4930500;28;20437;-78
2021/05/04 08:26:38;;;;;;;2.30;2.10;;;14.40;99.90;;;;;;4927171;28;20402;-78
2021/05/04 08:29:04;;;;;;;2.25;2.10;;;14.50;99.90;;;;;;4940103;28;20495;-78
2021/05/04 08:31:30;;;;;;;2.50;2.30;;;14.50;99.90;;;;;;4935244;29;20557;-79
2021/05/04 08:33:55;;;;;;;2.30;2.10;;;14.60;99.90;;;;;;4919923;28;20425;-79
2021/05/04 08:36:21;;;;;;;2.55;2.00;;;14.60;99.90;;;;;;4924164;29;20401;-79
2021/05/04 08:38:47;;;;;;;2.40;2.20;;;14.50;99.90;;;;;;4916532;28;20438;-81
2021/05/04 08:41:14;;;;;;;2.35;2.15;;;14.40;99.90;;;;;;4919800;29;20417;-79
2021/05/04 08:43:39;;;;;;;4.18;2.20;;;14.40;99.90;;;;;;4928969;28;20407;-79
2021/05/04 08:46:05;;;;;;;2.50;2.20;;;14.40;99.90;;;;;;4907843;28;20409;-80
2021/05/04 08:48:31;;;;;;;2.00;1.88;;;14.30;99.90;;;;;;4922211;29;20874;-81
2021/05/04 08:50:58;;;;;;;2.13;2.00;;;14.30;99.90;;;;;;4900278;29;20445;-78
2021/05/04 08:53:24;;;;;;;2.20;2.00;;;14.20;99.90;;;;;;4941731;28;20396;-79
2021/05/04 08:55:49;;;;;;;1.88;1.77;;;14.10;99.90;;;;;;4904876;28;20984;-79
2021/05/04 08:58:15;;;;;;;2.30;2.10;;;14.00;99.90;;;;;;4920546;29;20444;-79
2021/05/04 09:00:41;;;;;;;2.38;2.08;;;14.00;99.90;;;;;;4903447;29;21011;-79
2021/05/04 09:03:11;;;;;;;2.38;1.92;;;14.00;99.90;;;;;;4922979;29;20405;-80
2021/05/04 09:08:37;;;;;;;2.20;2.03;;;13.50;99.90;;;;;;4923289;29;20465;-79
2021/05/04 09:11:41;;;;;;;2.05;1.83;;;13.30;99.90;;;;;;4925239;28;20406;-82
2021/05/04 09:14:55;;;;;;;1.92;1.80;;;13.00;99.90;;;;;;4933487;28;20487;-80
2021/05/04 09:21:57;;;;;;;2.00;1.90;;;12.30;99.90;;;;;;4922105;28;20408;-79
2021/05/04 09:24:40;;;;;;;2.00;1.80;;;12.30;99.90;;;;;;4935175;28;20394;-79
2021/05/04 09:27:10;;;;;;;2.20;2.07;;;12.20;99.90;;;;;;4909753;28;20411;-80
2021/05/04 09:29:40;;;;;;;5.15;2.30;;;12.10;99.90;;;;;;4935678;29;20421;-79
2021/05/04 09:32:17;;;;;;;2.10;1.90;;;12.10;99.90;;;;;;4903526;29;20418;-79
2021/05/04 09:34:54;;;;;;;1.80;1.70;;;12.00;99.90;;;;;;4925637;29;20954;-79
2021/05/04 09:37:27;;;;;;;1.65;1.55;;;11.90;99.90;;;;;;4934783;29;20427;-79
2021/05/04 09:39:53;;;;;;;1.85;1.73;;;12.00;99.90;;;;;;4921668;28;20389;-79
2021/05/04 09:42:19;;;;;;;1.80;1.70;;;12.00;99.90;;;;;;4899959;29;20406;-79
2021/05/04 09:44:48;;;;;;;1.60;1.50;;;12.00;99.90;;;;;;4949194;28;20405;-79
2021/05/04 09:47:24;;;;;;;1.77;1.67;;;12.00;99.90;;;;;;4917383;28;20462;-79
2021/05/04 09:49:50;;;;;;;1.70;1.60;;;11.90;99.90;;;;;;4934412;29;20422;-79
2021/05/04 09:52:39;;;;;;;3.78;1.63;;;11.90;99.90;;;;;;4920797;29;20402;-79
2021/05/04 09:55:08;;;;;;;1.52;1.42;;;11.90;99.90;;;;;;4940590;28;20483;-79
2021/05/04 09:57:44;;;;;;;1.70;1.60;;;11.90;99.90;;;;;;4941933;28;20416;-79
2021/05/04 10:00:15;;;;;;;1.50;1.40;;;11.80;99.90;;;;;;4904669;29;20393;-79
2021/05/04 10:02:41;;;;;;;1.60;1.50;;;11.80;99.90;;;;;;4923200;29;20394;-80
2021/05/04 10:05:14;;;;;;;1.65;1.55;;;11.70;99.90;;;;;;4939172;29;20397;-79
2021/05/04 10:07:41;;;;;;;1.50;1.40;;;11.70;99.90;;;;;;4912402;29;20884;-79
2021/05/04 10:10:16;;;;;;;1.40;1.30;;;11.80;99.90;;;;;;4889326;29;20434;-80
2021/05/04 10:12:44;;;;;;;1.60;1.50;;;11.80;99.90;;;;;;4892025;29;20414;-79
2021/05/04 10:15:14;;;;;;;1.70;1.60;;;11.80;99.90;;;;;;4933046;29;20477;-80
2021/05/04 10:17:41;;;;;;;1.60;1.50;;;11.80;99.90;;;;;;4891644;29;20394;-79
2021/05/04 10:20:20;;;;;;;1.92;1.73;;;11.80;99.90;;;;;;4923348;29;21078;-79
2021/05/04 10:22:50;;;;;;;2.20;1.52;;;11.80;99.90;;;;;;4916973;28;20406;-80
2021/05/04 10:25:20;;;;;;;1.73;1.48;;;11.80;99.90;;;;;;4938345;28;20863;-79
2021/05/04 10:27:51;;;;;;;1.70;1.60;;;11.90;99.90;;;;;;4905959;28;20972;-80
2021/05/04 10:30:24;;;;;;;1.65;1.55;;;12.00;99.90;;;;;;4895999;29;20426;-79
2021/05/04 10:33:41;;;;;;;1.70;1.60;;;12.00;99.90;;;;;;4935904;29;20425;-80
2021/05/04 10:36:43;;;;;;;1.52;1.42;;;12.10;99.90;;;;;;4917966;29;20896;-79
2021/05/04 10:40:13;;;;;;;1.52;1.45;;;12.30;99.90;;;;;;4930028;29;20449;-79
2021/05/04 10:44:13;;;;;;;1.58;1.48;;;12.50;99.90;;;;;;4964076;28;20403;-79
2021/05/04 10:47:48;;;;;;;1.52;1.42;;;12.60;99.90;;;;;;4919654;28;20431;-79
2021/05/04 10:51:47;;;;;;;1.83;1.58;;;12.60;99.90;;;;;;4951960;29;20495;-80
2021/05/04 10:55:02;;;;;;;1.75;1.45;;;12.80;99.90;;;;;;4898655;29;20521;-80
2021/05/04 10:58:08;;;;;;;1.60;1.50;;;12.80;99.90;;;;;;4966512;23;21046;-79
2021/05/04 11:00:51;;;;;;;1.65;1.55;;;12.90;99.90;;;;;;4897095;29;20900;-79
2021/05/04 11:03:35;;;;;;;1.70;1.30;;;13.00;99.90;;;;;;4933297;29;20403;-79
2021/05/04 11:06:04;;;;;;;1.40;1.30;;;13.10;99.90;;;;;;4934997;29;20433;-80
2021/05/04 11:08:47;;;;;;;1.58;1.48;;;13.20;99.90;;;;;;4902168;29;20396;-80
2021/05/04 11:11:37;;;;;;;1.40;1.30;;;13.10;99.90;;;;;;4886752;29;20544;-79
2021/05/04 11:14:14;;;;;;;2.15;1.60;;;13.10;99.90;;;;;;4894790;29;20547;-79
2021/05/04 11:16:47;;;;;;;1.60;1.50;;;13.30;99.90;;;;;;4901544;29;20413;-79
2021/05/04 11:19:17;;;;;;;1.48;1.38;;;13.40;99.90;;;;;;4905052;29;20399;-80
2021/05/04 11:21:47;;;;;;;1.13;1.13;;;13.50;99.90;;;;;;4887898;29;20408;-79
2021/05/04 11:24:17;;;;;;;1.40;1.30;;;13.70;99.90;;;;;;4886226;29;20783;-80
2021/05/04 11:26:53;;;;;;;1.38;1.27;;;13.70;99.90;;;;;;4886436;29;20895;-80
2021/05/04 11:29:20;;;;;;;1.30;1.20;;;13.90;99.90;;;;;;4896836;29;20485;-80
2021/05/04 11:31:55;;;;;;;1.30;1.20;;;14.10;99.90;;;;;;4908920;29;20400;-82
2021/05/04 11:34:40;;;;;;;1.20;1.20;;;14.40;99.90;;;;;;4893635;29;20439;-81
2021/05/04 11:37:10;;;;;;;2.42;1.30;;;15.00;99.90;;;;;;4914883;29;21091;-84
2021/05/04 11:39:55;;;;;;;1.08;1.08;;;15.20;99.90;;;;;;4909423;29;20400;-82
2021/05/04 11:42:46;;;;;;;1.40;1.30;;;15.10;99.90;;;;;;4903333;29;20404;-80
2021/05/04 11:45:17;;;;;;;1.10;1.00;;;15.00;99.90;;;;;;4918488;29;20388;-85
2021/05/04 11:47:47;;;;;;;1.20;1.10;;;14.90;99.90;;;;;;4932388;29;20403;-80
2021/05/04 11:50:23;;;;;;;1.45;1.15;;;15.00;99.90;;;;;;4903552;29;20408;-80
2021/05/04 11:52:50;;;;;;;1.20;1.10;;;15.10;99.90;;;;;;4900767;29;21342;-79
2021/05/04 11:55:19;;;;;;;1.10;1.10;;;15.10;99.90;;;;;;4915698;29;20415;-80
2021/05/04 11:57:47;;;;;;;1.42;1.30;;;15.10;99.90;;;;;;4915054;29;20514;-85
2021/05/04 12:00:18;;;;;;;1.08;1.08;;;15.10;99.90;;;;;;4863904;29;20420;-80
2021/05/04 12:02:46;;;;;;;1.27;1.17;;;15.20;99.90;;;;;;4866359;29;20420;-82
2021/05/04 12:05:14;;;;;;;1.70;1.00;;;15.10;99.90;;;;;;4866752;29;20432;-81
2021/05/04 12:07:44;;;;;;;1.30;1.20;;;15.10;99.90;;;;;;4880640;29;20920;-81
2021/05/04 12:10:15;;;;;;;1.42;1.13;;;15.20;99.90;;;;;;4882556;29;20437;-79
2021/05/04 12:12:41;;;;;;;1.25;1.20;;;15.20;99.90;;;;;;4921548;29;20992;-81
2021/05/04 12:15:07;;;;;;;1.05;1.05;;;15.30;99.90;;;;;;4895728;29;20484;-82
2021/05/04 12:17:33;;;;;;;1.33;1.23;;;15.20;99.90;;;;;;4883156;29;20434;-83
2021/05/04 12:20:15;;;;;;;2.78;1.20;;;15.20;99.90;;;;;;4891329;29;20401;-81
2021/05/04 12:22:51;;;;;;;1.48;1.38;;;15.30;99.90;;;;;;4904600;29;20476;-82
2021/05/04 12:25:18;;;;;;;1.13;1.13;;;15.20;99.90;;;;;;4901277;29;20425;-79
2021/05/04 12:27:45;;;;;;;1.48;1.10;;;15.10;99.90;;;;;;4879476;29;20959;-79
2021/05/04 12:30:12;;;;;;;1.45;1.15;;;15.00;99.90;;;;;;4864279;29;20422;-81
2021/05/04 12:32:38;;;;;;;1.30;1.20;;;15.10;99.90;;;;;;4858602;29;20413;-80
2021/05/04 12:35:31;;;;;;;1.00;1.00;;;15.20;99.90;;;;;;4865406;29;20405;-80
2021/05/04 12:38:03;;;;;;;1.00;1.00;;;15.30;99.90;;;;;;4865658;29;20405;-80
2021/05/04 12:40:29;;;;;;;1.38;1.10;;;15.30;99.90;;;;;;4895686;29;20504;-80
2021/05/04 12:43:29;;;;;;;1.60;1.30;;;15.20;99.90;;;;;;4881080;29;20486;-80
2021/05/04 12:46:13;;;;;;;2.08;1.70;;;15.10;99.90;;;;;;4899129;29;20688;-80
2021/05/04 12:48:40;;;;;;;1.50;1.40;;;14.90;99.90;;;;;;4901154;29;20403;-79
2021/05/04 12:51:13;;;;;;;1.70;1.60;;;14.90;99.90;;;;;;4866088;29;20470;-77
2021/05/04 12:53:40;;;;;;;1.67;1.57;;;14.80;99.90;;;;;;4876014;29;20493;-80
2021/05/04 12:56:07;;;;;;;1.90;1.70;;;14.90;99.90;;;;;;4903489;29;20487;-79
2021/05/04 12:58:33;;;;;;;2.95;1.80;;;15.00;99.90;;;;;;4904560;29;20442;-79
2021/05/04 13:01:12;;;;;;;1.90;1.80;;;15.00;99.90;;;;;;4902375;29;20386;-80
2021/05/04 13:03:54;;;;;;;2.40;2.00;;;14.90;99.90;;;;;;4916186;29;20415;-81
2021/05/04 13:06:25;;;;;;;1.50;1.40;;;15.00;99.90;;;;;;4947918;29;20400;-81
2021/05/04 13:09:32;;;;;;;1.67;1.58;;;14.80;99.90;;;;;;4902178;29;20408;-84
2021/05/04 13:15:39;;;;;;;2.00;1.80;;;14.90;99.90;;;;;;4919445;29;20416;-82